Time;durP1;ratioP1;P1;durP2;ratioP2;P2;SDS_P1;SDS_P2;PMS_P1;PMS_P2;Temp;Humidity;BMP_temperature;BMP_pressure;BME280_temperature;BME280_humidity;BME280_pressure;Samples;Min_cycle;Max_cycle;Signal;HPM_P1;HPM_P2
2023/08/19 00:00:59;;;;;;;55.15;44.05;;;21.20;99.90;;;;;;4894550;29;20276;-65
2023/08/19 00:03:26;;;;;;;54.20;42.20;;;21.10;99.90;;;;;;4888175;29;20185;-64
2023/08/19 00:05:52;;;;;;;56.63;43.88;;;21.10;99.90;;;;;;4854775;29;20201;-66
2023/08/19 00:08:19;;;;;;;55.47;43.08;;;21.10;99.90;;;;;;4892505;29;20257;-66
2023/08/19 00:10:45;;;;;;;53.72;42.80;;;21.10;99.90;;;;;;4890070;29;20181;-65
2023/08/19 00:13:11;;;;;;;54.40;42.38;;;21.10;99.90;;;;;;4882185;29;20565;-65
2023/08/19 00:15:37;;;;;;;59.83;44.47;;;21.00;99.90;;;;;;4896163;29;20192;-66
2023/08/19 00:18:03;;;;;;;53.40;43.00;;;21.00;99.90;;;;;;4892506;29;20256;-65
2023/08/19 00:20:30;;;;;;;52.22;42.42;;;21.00;99.90;;;;;;4897487;29;20196;-66
2023/08/19 00:22:56;;;;;;;52.08;44.20;;;21.00;99.90;;;;;;4884134;29;20701;-66
2023/08/19 00:25:24;;;;;;;55.28;43.10;;;20.90;99.90;;;;;;4886412;29;20217;-65
2023/08/19 00:27:51;;;;;;;55.92;42.38;;;21.00;99.90;;;;;;4885292;29;20267;-65
2023/08/19 00:30:17;;;;;;;53.35;43.50;;;20.90;99.90;;;;;;4878049;29;20189;-66
2023/08/19 00:32:44;;;;;;;58.30;42.88;;;20.90;99.90;;;;;;4881243;29;20208;-66
2023/08/19 00:35:10;;;;;;;55.75;44.00;;;20.90;99.90;;;;;;4887166;29;20324;-65
2023/08/19 00:37:37;;;;;;;56.35;44.15;;;20.90;99.90;;;;;;4887848;29;20530;-65
2023/08/19 00:40:06;;;;;;;60.40;43.58;;;20.90;99.90;;;;;;4879315;29;20201;-66
2023/08/19 00:42:32;;;;;;;57.75;43.42;;;20.90;99.90;;;;;;4882570;29;20284;-65
2023/08/19 00:44:58;;;;;;;55.22;42.92;;;20.80;99.90;;;;;;4880750;29;20204;-64
2023/08/19 00:47:25;;;;;;;61.00;45.20;;;20.80;99.90;;;;;;4884365;29;20709;-64
2023/08/19 00:49:51;;;;;;;58.25;44.67;;;20.80;99.90;;;;;;4878129;29;20189;-64
2023/08/19 00:52:18;;;;;;;59.50;45.05;;;20.80;99.90;;;;;;4879114;29;20193;-66
2023/08/19 00:54:45;;;;;;;59.80;43.92;;;20.70;99.90;;;;;;4881070;29;20276;-65
2023/08/19 00:57:12;;;;;;;56.78;43.50;;;20.70;99.90;;;;;;4887536;29;20193;-64
2023/08/19 00:59:38;;;;;;;58.97;44.65;;;20.70;99.90;;;;;;4889001;29;20220;-65
2023/08/19 01:02:04;;;;;;;57.78;45.40;;;20.70;99.90;;;;;;4901134;29;20181;-65
2023/08/19 01:04:30;;;;;;;58.10;43.97;;;20.70;99.90;;;;;;4894834;29;20280;-65
2023/08/19 01:07:15;;;;;;;61.90;45.13;;;20.70;99.90;;;;;;4889509;29;20638;-65
2023/08/19 01:09:57;;;;;;;60.17;44.55;;;20.60;99.90;;;;;;4902018;29;20209;-66
2023/08/19 01:12:57;;;;;;;60.08;45.58;;;20.70;99.90;;;;;;4893148;29;20184;-65
2023/08/19 01:15:27;;;;;;;62.17;45.38;;;20.60;99.90;;;;;;4888224;29;20205;-65
2023/08/19 01:17:55;;;;;;;62.67;44.88;;;20.60;99.90;;;;;;4886077;29;20653;-65
2023/08/19 01:20:23;;;;;;;55.92;44.35;;;20.60;99.90;;;;;;4899527;29;20248;-66
2023/08/19 01:23:04;;;;;;;59.47;44.55;;;20.60;99.90;;;;;;4874943;29;20193;-66
2023/08/19 01:25:31;;;;;;;58.63;44.15;;;20.60;99.90;;;;;;4904142;29;20177;-65
2023/08/19 01:28:01;;;;;;;60.63;45.25;;;20.60;99.90;;;;;;4895588;29;20197;-65
2023/08/19 01:30:28;;;;;;;65.05;46.58;;;20.60;99.90;;;;;;4900436;29;20212;-65
2023/08/19 01:32:54;;;;;;;59.22;45.00;;;20.50;99.90;;;;;;4886647;29;20193;-65
2023/08/19 01:35:20;;;;;;;60.22;46.17;;;20.50;99.90;;;;;;4898403;29;20243;-66
2023/08/19 01:37:55;;;;;;;60.08;45.97;;;20.50;99.90;;;;;;4897665;29;20276;-66
2023/08/19 01:40:25;;;;;;;64.60;47.92;;;20.50;99.90;;;;;;4899340;29;20251;-66
2023/08/19 01:42:53;;;;;;;65.25;46.70;;;20.50;99.90;;;;;;4898418;29;20193;-66
2023/08/19 01:45:19;;;;;;;63.60;46.53;;;20.50;99.90;;;;;;4907568;29;20192;-66
2023/08/19 01:47:50;;;;;;;65.05;46.03;;;20.50;99.90;;;;;;4883178;29;20630;-67
2023/08/19 01:50:16;;;;;;;62.47;46.22;;;20.50;99.90;;;;;;4884041;29;20538;-67
2023/08/19 01:52:42;;;;;;;64.80;46.47;;;20.40;99.90;;;;;;4913095;29;20197;-67
2023/08/19 01:55:08;;;;;;;68.35;46.08;;;20.50;99.90;;;;;;4897916;29;20200;-66
2023/08/19 01:57:34;;;;;;;61.25;46.58;;;20.40;99.90;;;;;;4879038;29;20193;-66
2023/08/19 02:00:00;;;;;;;64.22;46.85;;;20.40;99.90;;;;;;4895719;29;20192;-66
2023/08/19 02:02:26;;;;;;;65.35;47.63;;;20.40;99.90;;;;;;4885128;29;20190;-66
2023/08/19 02:04:52;;;;;;;64.53;48.15;;;20.40;99.90;;;;;;4886384;29;20626;-67
2023/08/19 02:07:18;;;;;;;63.03;45.58;;;20.40;99.90;;;;;;4900634;29;20199;-66
2023/08/19 02:09:45;;;;;;;72.13;47.47;;;20.40;99.90;;;;;;4895160;29;20661;-67
2023/08/19 02:12:11;;;;;;;60.97;46.25;;;20.40;99.90;;;;;;4880197;29;20196;-66
2023/08/19 02:14:37;;;;;;;66.28;47.38;;;20.40;99.90;;;;;;4890876;29;20188;-66
2023/08/19 02:17:03;;;;;;;66.22;46.95;;;20.40;99.90;;;;;;4892682;29;20814;-65
2023/08/19 02:19:28;;;;;;;61.60;47.00;;;20.40;99.90;;;;;;4897408;29;20235;-66
2023/08/19 02:21:54;;;;;;;64.50;47.20;;;20.40;99.90;;;;;;4910248;29;20193;-66
2023/08/19 02:24:20;;;;;;;66.70;48.75;;;20.40;99.90;;;;;;4885890;29;20275;-65
2023/08/19 02:26:46;;;;;;;64.85;49.00;;;20.40;99.90;;;;;;4882510;29;20597;-66
2023/08/19 02:29:12;;;;;;;66.97;47.63;;;20.40;99.90;;;;;;4886004;29;20193;-65
2023/08/19 02:31:38;;;;;;;69.60;47.08;;;20.40;99.90;;;;;;4902440;29;21052;-65
2023/08/19 02:34:05;;;;;;;67.90;47.70;;;20.40;99.90;;;;;;4891967;29;20264;-65
2023/08/19 02:36:31;;;;;;;69.35;48.15;;;20.40;99.90;;;;;;4873637;29;20275;-67
2023/08/19 02:38:58;;;;;;;67.53;48.15;;;20.40;99.90;;;;;;4907042;29;20255;-65
2023/08/19 02:41:24;;;;;;;65.03;48.53;;;20.40;99.90;;;;;;4898197;29;20193;-66
2023/08/19 02:43:51;;;;;;;66.28;47.60;;;20.40;99.90;;;;;;4898901;29;20203;-66
2023/08/19 02:46:16;;;;;;;68.03;48.45;;;20.40;99.90;;;;;;4884524;29;20201;-66
2023/08/19 02:48:42;;;;;;;68.07;48.00;;;20.40;99.90;;;;;;4894469;29;20201;-65
2023/08/19 02:51:08;;;;;;;67.75;48.28;;;20.40;99.90;;;;;;4881250;29;20657;-66
2023/08/19 02:53:35;;;;;;;68.18;48.58;;;20.40;99.90;;;;;;4893466;29;20203;-65
2023/08/19 02:56:05;;;;;;;64.90;47.55;;;20.40;99.90;;;;;;4897763;29;20200;-67
2023/08/19 02:58:31;;;;;;;65.65;48.17;;;20.40;99.90;;;;;;4886916;29;20303;-66
2023/08/19 03:00:57;;;;;;;64.60;48.67;;;20.40;99.90;;;;;;4889571;29;20284;-66
2023/08/19 03:03:23;;;;;;;74.40;49.38;;;20.40;99.90;;;;;;4880417;29;20241;-65
2023/08/19 03:05:49;;;;;;;68.57;48.30;;;20.30;99.90;;;;;;4894897;29;20192;-66
2023/08/19 03:08:15;;;;;;;71.38;48.92;;;20.30;99.90;;;;;;4891200;29;20224;-66
2023/08/19 03:10:41;;;;;;;69.20;48.38;;;20.40;99.90;;;;;;4893502;29;20245;-65
2023/08/19 03:13:09;;;;;;;71.93;48.15;;;20.30;99.90;;;;;;4881125;29;20196;-64
2023/08/19 03:15:38;;;;;;;67.68;48.53;;;20.40;99.90;;;;;;4888982;29;20189;-65
2023/08/19 03:18:05;;;;;;;71.85;49.72;;;20.40;99.90;;;;;;4881717;29;20220;-65
2023/08/19 03:20:31;;;;;;;69.00;49.08;;;20.40;99.90;;;;;;4894203;29;20199;-65
2023/08/19 03:22:57;;;;;;;63.83;47.28;;;20.40;99.90;;;;;;4896769;29;20211;-65
2023/08/19 03:25:23;;;;;;;68.00;49.00;;;20.40;99.90;;;;;;4892304;29;20205;-65
2023/08/19 03:27:49;;;;;;;68.13;47.70;;;20.40;99.90;;;;;;4899280;29;20639;-65
2023/08/19 03:30:15;;;;;;;65.30;47.03;;;20.40;99.90;;;;;;4887835;29;20244;-65
2023/08/19 03:32:41;;;;;;;67.50;47.45;;;20.40;99.90;;;;;;4895599;29;20567;-66
2023/08/19 03:35:07;;;;;;;61.13;45.90;;;20.40;99.90;;;;;;4891957;29;20272;-65
2023/08/19 03:37:33;;;;;;;62.83;46.58;;;20.40;99.90;;;;;;4882746;29;20193;-65
2023/08/19 03:39:59;;;;;;;65.25;47.00;;;20.40;99.90;;;;;;4889549;29;20200;-65
2023/08/19 03:42:25;;;;;;;66.45;46.53;;;20.40;99.90;;;;;;4888531;29;20225;-65
2023/08/19 03:44:53;;;;;;;59.47;45.40;;;20.40;99.90;;;;;;4889850;29;20209;-65
2023/08/19 03:47:18;;;;;;;62.28;46.08;;;20.40;99.90;;;;;;4892690;29;20215;-66
2023/08/19 03:49:44;;;;;;;63.22;44.65;;;20.40;99.90;;;;;;4891959;29;20576;-66
2023/08/19 03:52:10;;;;;;;66.70;45.95;;;20.40;99.90;;;;;;4878107;29;20224;-64
2023/08/19 03:54:36;;;;;;;60.13;45.03;;;20.40;99.90;;;;;;4888482;29;20280;-65
2023/08/19 03:57:02;;;;;;;58.75;43.92;;;20.40;99.90;;;;;;4903946;29;20643;-65
2023/08/19 03:59:28;;;;;;;57.95;43.75;;;20.40;99.90;;;;;;4881969;29;20228;-64
2023/08/19 04:01:56;;;;;;;62.03;43.50;;;20.40;99.90;;;;;;4890369;29;20334;-65
2023/08/19 04:04:22;;;;;;;59.38;43.35;;;20.40;99.90;;;;;;4894810;29;20687;-64
2023/08/19 04:06:48;;;;;;;58.22;42.38;;;20.40;99.90;;;;;;4906453;29;20200;-65
2023/08/19 04:09:14;;;;;;;58.88;43.03;;;20.40;99.90;;;;;;4878887;29;20280;-64
2023/08/19 04:11:40;;;;;;;56.30;42.63;;;20.40;99.90;;;;;;4886933;29;20190;-64
2023/08/19 04:14:06;;;;;;;56.90;41.35;;;20.40;99.90;;;;;;4889613;29;20200;-64
2023/08/19 04:16:32;;;;;;;56.20;40.63;;;20.40;99.90;;;;;;4890590;29;20197;-66
2023/08/19 04:18:59;;;;;;;56.97;40.72;;;20.40;99.90;;;;;;4895137;29;20585;-65
2023/08/19 04:21:25;;;;;;;59.92;40.38;;;20.40;99.90;;;;;;4894686;29;20654;-65
2023/08/19 04:23:51;;;;;;;55.00;42.13;;;20.40;99.90;;;;;;4888166;29;20200;-65
2023/08/19 04:26:17;;;;;;;56.20;40.08;;;20.40;99.90;;;;;;4893176;29;20184;-67
2023/08/19 04:28:44;;;;;;;49.33;38.80;;;20.40;99.90;;;;;;4894884;29;20200;-66
2023/08/19 04:31:11;;;;;;;51.15;38.33;;;20.40;99.90;;;;;;4878700;29;20185;-65
2023/08/19 04:33:44;;;;;;;51.70;38.40;;;20.40;99.90;;;;;;4895244;29;20207;-66
2023/08/19 04:36:10;;;;;;;49.83;38.03;;;20.40;99.90;;;;;;4895266;29;20260;-66
2023/08/19 04:38:36;;;;;;;46.20;36.80;;;20.50;99.90;;;;;;4884554;29;20311;-65
2023/08/19 04:41:04;;;;;;;49.15;36.83;;;20.50;99.90;;;;;;4860265;29;20703;-66
2023/08/19 04:43:37;;;;;;;48.20;37.10;;;20.50;99.90;;;;;;4872526;29;20196;-66
2023/08/19 04:46:03;;;;;;;48.53;36.90;;;20.50;99.90;;;;;;4888246;29;20197;-66
2023/08/19 04:48:29;;;;;;;47.28;36.13;;;20.50;99.90;;;;;;4894857;29;20200;-66
2023/08/19 04:50:55;;;;;;;47.30;34.47;;;20.50;99.90;;;;;;4895705;29;20649;-66
2023/08/19 04:53:21;;;;;;;51.85;34.92;;;20.60;99.90;;;;;;4862612;29;20276;-66
2023/08/19 04:55:48;;;;;;;46.88;33.35;;;20.60;99.90;;;;;;4895851;29;20223;-65
2023/08/19 04:58:13;;;;;;;41.08;31.50;;;20.60;99.90;;;;;;4886684;29;20682;-65
2023/08/19 05:00:39;;;;;;;40.88;30.67;;;20.70;99.90;;;;;;4881743;29;20192;-66
2023/08/19 05:03:05;;;;;;;39.35;30.92;;;20.70;99.90;;;;;;4894133;29;20248;-66
2023/08/19 05:05:33;;;;;;;42.10;29.92;;;20.70;99.90;;;;;;4878062;29;20212;-64
2023/08/19 05:08:01;;;;;;;38.88;30.27;;;20.80;99.90;;;;;;4882958;29;20220;-64
2023/08/19 05:10:28;;;;;;;37.80;28.75;;;20.80;99.90;;;;;;4881650;29;20612;-64
2023/08/19 05:12:54;;;;;;;39.20;28.83;;;20.90;99.90;;;;;;4882071;29;20299;-64
2023/08/19 05:15:20;;;;;;;34.47;28.08;;;20.90;99.90;;;;;;4894715;29;20586;-64
2023/08/19 05:17:46;;;;;;;32.80;27.58;;;21.00;99.90;;;;;;4890326;29;20190;-64
2023/08/19 05:20:12;;;;;;;34.35;26.90;;;21.00;99.90;;;;;;4872030;29;20245;-63
2023/08/19 05:22:38;;;;;;;39.05;27.55;;;21.10;99.90;;;;;;4891344;29;20196;-64
2023/08/19 05:25:05;;;;;;;33.63;26.40;;;21.10;99.90;;;;;;4879143;29;20208;-64
2023/08/19 05:27:31;;;;;;;37.22;26.30;;;21.20;99.90;;;;;;4893118;29;20232;-63
2023/08/19 05:29:57;;;;;;;32.90;25.02;;;21.20;99.90;;;;;;4888525;29;20243;-64
2023/08/19 05:32:23;;;;;;;31.65;24.45;;;21.30;99.90;;;;;;4887947;29;20742;-63
2023/08/19 05:34:49;;;;;;;31.00;24.00;;;21.30;99.90;;;;;;4870335;29;20232;-63
2023/08/19 05:37:15;;;;;;;33.33;23.10;;;21.40;99.90;;;;;;4894916;29;20228;-64
2023/08/19 05:39:41;;;;;;;34.97;23.10;;;21.40;99.90;;;;;;4895853;29;20268;-65
2023/08/19 05:42:07;;;;;;;28.77;22.52;;;21.40;99.90;;;;;;4894777;29;20212;-64
2023/08/19 05:44:33;;;;;;;30.05;22.35;;;21.50;99.90;;;;;;4890737;29;20261;-65
2023/08/19 05:46:58;;;;;;;28.90;21.55;;;21.50;99.90;;;;;;4891376;29;20224;-64
2023/08/19 05:49:24;;;;;;;28.48;21.80;;;21.60;99.90;;;;;;4893327;29;20225;-63
2023/08/19 05:51:50;;;;;;;29.08;21.80;;;21.60;99.90;;;;;;4880852;29;20275;-64
2023/08/19 05:54:16;;;;;;;36.50;27.02;;;21.70;99.90;;;;;;4887365;29;20188;-63
2023/08/19 05:56:42;;;;;;;31.83;23.33;;;21.80;99.90;;;;;;4879101;29;20198;-63
2023/08/19 05:59:08;;;;;;;31.33;22.50;;;21.80;99.90;;;;;;4899777;29;20228;-64
2023/08/19 06:01:34;;;;;;;29.27;21.33;;;21.90;99.90;;;;;;4887434;29;20216;-64
2023/08/19 06:04:01;;;;;;;28.60;21.17;;;21.90;99.90;;;;;;4891329;29;20193;-64
2023/08/19 06:06:26;;;;;;;30.25;21.65;;;22.00;99.90;;;;;;4859578;29;20207;-65
2023/08/19 06:08:52;;;;;;;27.63;21.27;;;22.10;99.90;;;;;;4891631;29;20185;-65
2023/08/19 06:11:18;;;;;;;23.60;19.85;;;22.10;99.90;;;;;;4877137;29;20587;-65
2023/08/19 06:13:44;;;;;;;25.88;19.17;;;22.20;99.90;;;;;;4908633;29;20203;-65
2023/08/19 06:16:10;;;;;;;27.38;19.02;;;22.20;99.90;;;;;;4886543;29;20212;-65
2023/08/19 06:18:36;;;;;;;27.27;18.67;;;22.30;99.90;;;;;;4892606;29;20556;-66
2023/08/19 06:21:03;;;;;;;29.02;18.75;;;22.30;99.90;;;;;;4880814;29;20276;-65
2023/08/19 06:23:29;;;;;;;22.20;18.13;;;22.40;99.90;;;;;;4892365;29;20193;-65
2023/08/19 06:25:55;;;;;;;21.63;17.02;;;22.40;99.90;;;;;;4888084;29;20224;-64
2023/08/19 06:28:22;;;;;;;24.17;17.63;;;22.50;99.90;;;;;;4909492;29;20188;-67
2023/08/19 06:30:48;;;;;;;30.20;23.08;;;22.50;99.90;;;;;;4893059;29;20661;-66
2023/08/19 06:33:15;;;;;;;23.27;17.63;;;22.60;99.90;;;;;;4882800;29;20701;-66
2023/08/19 06:35:48;;;;;;;22.58;17.50;;;22.60;99.90;;;;;;4888790;29;20260;-66
2023/08/19 06:38:27;;;;;;;19.25;16.98;;;22.70;99.90;;;;;;4889030;29;20209;-65
2023/08/19 06:40:55;;;;;;;22.98;17.50;;;22.70;99.90;;;;;;4886130;29;20189;-65
2023/08/19 06:43:25;;;;;;;23.08;16.90;;;22.80;99.90;;;;;;4893418;29;20258;-64
2023/08/19 06:45:55;;;;;;;26.75;16.45;;;22.80;99.90;;;;;;4881818;29;20534;-65
2023/08/19 06:48:25;;;;;;;22.70;15.77;;;22.80;99.90;;;;;;4880347;29;20288;-66
2023/08/19 06:50:54;;;;;;;20.08;15.55;;;22.90;99.90;;;;;;4889333;29;20204;-66
2023/08/19 06:53:21;;;;;;;27.40;18.52;;;22.90;99.90;;;;;;4876518;29;20230;-65
2023/08/19 06:56:14;;;;;;;22.52;17.08;;;22.90;99.90;;;;;;4889761;29;20197;-65
2023/08/19 06:59:06;;;;;;;19.35;16.38;;;22.80;99.90;;;;;;4879540;29;20225;-63
2023/08/19 07:01:34;;;;;;;25.63;16.90;;;22.80;99.90;;;;;;4880236;29;20193;-66
2023/08/19 07:04:00;;;;;;;23.75;17.00;;;22.80;99.90;;;;;;4901224;29;20216;-63
2023/08/19 07:06:30;;;;;;;23.58;17.00;;;22.80;99.90;;;;;;4896520;29;20193;-64
2023/08/19 07:08:58;;;;;;;21.75;16.63;;;22.80;99.90;;;;;;4879852;29;20192;-67
2023/08/19 07:11:25;;;;;;;23.52;16.65;;;22.80;99.90;;;;;;4890649;29;20211;-65
2023/08/19 07:13:51;;;;;;;22.10;16.60;;;22.80;99.90;;;;;;4882470;29;20197;-66
2023/08/19 07:16:20;;;;;;;21.67;16.73;;;22.80;99.90;;;;;;4888800;29;20669;-66
2023/08/19 07:18:51;;;;;;;26.48;16.73;;;22.80;99.90;;;;;;4893065;29;20212;-66
2023/08/19 07:21:20;;;;;;;21.73;15.52;;;22.80;99.90;;;;;;4886206;29;20616;-66
2023/08/19 07:23:47;;;;;;;27.98;16.23;;;22.80;99.90;;;;;;4893904;29;20196;-64
2023/08/19 07:26:15;;;;;;;20.80;15.25;;;22.80;99.90;;;;;;4896714;29;20216;-65
2023/08/19 07:28:41;;;;;;;16.92;15.07;;;22.90;99.90;;;;;;4894071;29;20283;-66
2023/08/19 07:31:09;;;;;;;26.63;15.40;;;22.90;99.90;;;;;;4882810;29;20682;-65
2023/08/19 07:33:36;;;;;;;24.90;15.43;;;23.00;99.90;;;;;;4884964;29;20658;-65
2023/08/19 07:36:02;;;;;;;20.08;14.90;;;23.10;99.90;;;;;;4884855;29;20241;-66
2023/08/19 07:38:29;;;;;;;19.10;14.82;;;23.20;99.90;;;;;;4895570;29;20316;-66
2023/08/19 07:40:55;;;;;;;19.70;14.77;;;23.20;99.90;;;;;;4896600;29;20647;-67
2023/08/19 07:43:21;;;;;;;18.33;14.55;;;23.30;99.90;;;;;;4881166;29;20219;-66
2023/08/19 07:45:47;;;;;;;18.48;14.45;;;23.30;99.90;;;;;;4891686;29;20744;-66
2023/08/19 07:48:13;;;;;;;16.83;13.90;;;23.40;99.90;;;;;;4892071;29;20196;-66
2023/08/19 07:50:39;;;;;;;25.27;13.40;;;23.40;99.90;;;;;;4898438;29;20185;-66
2023/08/19 07:53:05;;;;;;;16.52;13.52;;;23.50;99.90;;;;;;4861976;29;20527;-65
2023/08/19 07:55:31;;;;;;;17.92;13.32;;;23.50;99.90;;;;;;4865290;29;20203;-65
2023/08/19 07:57:57;;;;;;;19.17;14.57;;;23.60;99.90;;;;;;4891456;29;20332;-66
2023/08/19 08:00:23;;;;;;;20.63;14.02;;;23.70;99.90;;;;;;4875591;29;20188;-65
2023/08/19 08:02:50;;;;;;;20.83;13.25;;;23.70;99.90;;;;;;4878693;29;20192;-66
2023/08/19 08:05:16;;;;;;;18.65;12.85;;;23.80;99.90;;;;;;4883895;29;20284;-66
2023/08/19 08:07:42;;;;;;;17.45;12.77;;;23.80;99.90;;;;;;4893961;29;20195;-66
2023/08/19 08:10:08;;;;;;;20.08;12.48;;;23.90;99.90;;;;;;4892552;29;20200;-66
2023/08/19 08:12:34;;;;;;;18.08;12.48;;;23.90;99.90;;;;;;4885426;29;20192;-67
2023/08/19 08:15:03;;;;;;;14.13;11.68;;;23.90;99.90;;;;;;4889143;29;20235;-66
2023/08/19 08:17:30;;;;;;;14.05;12.35;;;24.00;99.90;;;;;;4886154;29;20561;-65
2023/08/19 08:19:57;;;;;;;15.57;12.20;;;24.00;99.90;;;;;;4893179;29;20559;-66
2023/08/19 08:22:23;;;;;;;19.13;12.40;;;24.00;99.90;;;;;;4890344;29;20203;-66
2023/08/19 08:24:49;;;;;;;16.48;12.00;;;24.10;99.90;;;;;;4892423;29;20181;-66
2023/08/19 08:27:15;;;;;;;15.05;12.20;;;24.20;99.90;;;;;;4885964;29;20212;-65
2023/08/19 08:29:42;;;;;;;19.88;10.98;;;24.20;99.90;;;;;;4877130;29;20662;-65
2023/08/19 08:32:09;;;;;;;25.75;12.05;;;24.30;99.90;;;;;;4871232;29;20637;-66
2023/08/19 08:34:36;;;;;;;13.95;10.90;;;24.40;99.90;;;;;;4885567;29;20650;-65
2023/08/19 08:37:02;;;;;;;18.75;10.85;;;24.50;99.90;;;;;;4879226;29;20236;-66
2023/08/19 08:39:28;;;;;;;14.93;10.50;;;24.50;99.90;;;;;;4880445;29;20560;-66
2023/08/19 08:41:54;;;;;;;17.95;11.43;;;24.60;99.90;;;;;;4895699;29;20204;-66
2023/08/19 08:44:21;;;;;;;16.60;10.73;;;24.70;99.90;;;;;;4894386;29;20198;-66
2023/08/19 08:46:49;;;;;;;19.75;10.65;;;24.70;99.90;;;;;;4883489;29;20197;-66
2023/08/19 08:49:17;;;;;;;14.80;10.13;;;24.80;99.90;;;;;;4892942;29;20196;-67
2023/08/19 08:51:43;;;;;;;15.45;10.32;;;24.90;99.90;;;;;;4881762;29;20229;-65
2023/08/19 08:54:10;;;;;;;15.40;10.05;;;24.90;99.90;;;;;;4896871;29;20253;-66
2023/08/19 08:56:36;;;;;;;11.73;9.48;;;25.00;99.90;;;;;;4895599;29;20215;-66
2023/08/19 08:59:03;;;;;;;13.40;9.52;;;25.10;99.90;;;;;;4893470;29;20212;-66
2023/08/19 09:01:29;;;;;;;16.63;9.75;;;25.10;99.90;;;;;;4886077;29;20213;-67
2023/08/19 09:04:03;;;;;;;14.75;9.15;;;25.20;99.90;;;;;;4903398;29;20685;-67
2023/08/19 09:06:31;;;;;;;13.80;9.23;;;25.30;99.90;;;;;;4890136;29;20219;-69
2023/08/19 09:09:03;;;;;;;12.73;9.02;;;25.40;99.90;;;;;;4890044;29;20197;-67
2023/08/19 09:11:35;;;;;;;11.60;8.93;;;25.40;99.90;;;;;;4876723;29;20196;-66
2023/08/19 09:14:22;;;;;;;13.07;8.40;;;25.60;99.90;;;;;;4896682;29;20207;-66
2023/08/19 09:16:49;;;;;;;12.88;7.82;;;25.70;99.90;;;;;;4881827;29;20188;-67
2023/08/19 09:19:15;;;;;;;13.50;7.75;;;25.90;99.90;;;;;;4879597;29;20224;-66
2023/08/19 09:21:42;;;;;;;14.85;8.10;;;26.10;99.90;;;;;;4884598;29;20350;-66
2023/08/19 09:24:08;;;;;;;14.43;7.57;;;26.20;99.90;;;;;;4907361;29;20681;-65
2023/08/19 09:26:37;;;;;;;11.73;7.78;;;26.40;99.90;;;;;;4895416;29;20276;-66
2023/08/19 09:29:05;;;;;;;16.63;7.57;;;26.60;99.90;;;;;;4893354;29;20259;-67
2023/08/19 09:31:31;;;;;;;14.40;6.82;;;26.70;99.90;;;;;;4894115;29;20204;-65
2023/08/19 09:33:59;;;;;;;11.23;7.00;;;26.90;99.90;;;;;;4880746;29;20416;-65
2023/08/19 09:36:25;;;;;;;13.48;7.07;;;27.00;99.90;;;;;;4888579;29;20237;-66
2023/08/19 09:38:57;;;;;;;11.70;6.43;;;27.10;99.90;;;;;;4894710;29;20271;-67
2023/08/19 09:41:28;;;;;;;12.60;7.05;;;27.10;99.90;;;;;;4887083;29;20197;-68
2023/08/19 09:43:55;;;;;;;16.50;9.15;;;27.20;99.90;;;;;;4894029;29;20195;-67
2023/08/19 09:46:30;;;;;;;13.68;8.80;;;27.20;99.90;;;;;;4877230;29;20196;-68
2023/08/19 09:48:57;;;;;;;14.35;7.22;;;27.30;99.90;;;;;;4895029;29;20214;-67
2023/08/19 09:51:25;;;;;;;13.15;7.28;;;27.30;99.90;;;;;;4912454;29;20198;-68
2023/08/19 09:53:51;;;;;;;14.18;7.35;;;27.30;99.90;;;;;;4899846;29;20649;-67
2023/08/19 09:56:21;;;;;;;12.20;6.90;;;27.40;99.90;;;;;;4896663;29;20601;-67
2023/08/19 09:58:52;;;;;;;12.15;6.85;;;27.40;99.90;;;;;;4889102;29;20307;-68
2023/08/19 10:01:21;;;;;;;14.38;7.30;;;27.40;99.90;;;;;;4897524;29;20232;-68
2023/08/19 10:03:47;;;;;;;10.60;6.97;;;27.50;99.90;;;;;;4898401;29;20184;-67
2023/08/19 10:06:16;;;;;;;11.60;7.55;;;27.60;99.90;;;;;;4898975;29;20211;-68
2023/08/19 10:08:46;;;;;;;11.30;7.55;;;27.60;99.90;;;;;;4891512;29;20226;-68
2023/08/19 10:11:15;;;;;;;12.68;6.53;;;27.70;99.90;;;;;;4895923;29;20188;-67
2023/08/19 10:13:45;;;;;;;11.65;7.15;;;27.70;99.90;;;;;;4898710;29;20211;-66
2023/08/19 10:16:13;;;;;;;13.10;7.20;;;27.70;99.90;;;;;;4891627;29;20192;-67
2023/08/19 10:18:42;;;;;;;10.88;6.80;;;27.70;99.90;;;;;;4897531;29;20255;-68
2023/08/19 10:21:12;;;;;;;12.63;7.30;;;27.60;99.90;;;;;;4888544;29;20200;-69
2023/08/19 10:23:40;;;;;;;19.65;8.20;;;27.60;99.90;;;;;;4899242;29;20195;-68
2023/08/19 10:26:07;;;;;;;12.68;7.47;;;27.50;99.90;;;;;;4899061;29;20189;-68
2023/08/19 10:28:33;;;;;;;10.40;7.45;;;27.40;99.90;;;;;;4898307;29;20274;-68
2023/08/19 10:31:09;;;;;;;15.13;7.43;;;27.30;99.90;;;;;;4887134;29;20736;-68
2023/08/19 10:33:44;;;;;;;11.98;7.22;;;27.20;99.90;;;;;;4898662;29;20362;-66
2023/08/19 10:36:18;;;;;;;15.98;7.43;;;27.10;99.90;;;;;;4897005;29;20581;-68
2023/08/19 10:38:47;;;;;;;14.40;8.07;;;27.00;99.90;;;;;;4895081;29;20220;-68
2023/08/19 10:41:40;;;;;;;10.52;7.78;;;26.90;99.90;;;;;;4896482;29;20200;-68
2023/08/19 10:44:12;;;;;;;11.10;7.95;;;26.90;99.90;;;;;;4894712;29;20286;-67
2023/08/19 10:46:46;;;;;;;9.43;7.32;;;26.80;99.90;;;;;;4899234;29;20196;-66
2023/08/19 10:49:19;;;;;;;14.65;8.05;;;26.90;99.90;;;;;;4889907;29;20657;-67
2023/08/19 10:51:57;;;;;;;15.18;9.10;;;26.90;99.90;;;;;;4890604;29;20242;-67
2023/08/19 10:54:27;;;;;;;19.30;9.23;;;27.00;99.90;;;;;;4897334;29;20192;-67
2023/08/19 10:57:14;;;;;;;13.40;8.38;;;27.10;99.90;;;;;;4898896;29;20184;-66
2023/08/19 10:59:42;;;;;;;13.93;8.77;;;27.20;99.90;;;;;;4898795;29;20291;-66
2023/08/19 11:02:09;;;;;;;12.95;8.50;;;27.30;99.90;;;;;;4890984;29;20200;-66
2023/08/19 11:04:39;;;;;;;13.20;8.75;;;27.50;99.90;;;;;;4896085;29;20275;-67
2023/08/19 11:07:07;;;;;;;13.75;8.27;;;27.60;99.90;;;;;;4898367;29;20590;-67
2023/08/19 11:09:34;;;;;;;19.30;8.93;;;27.60;99.90;;;;;;4897745;29;20712;-67
2023/08/19 11:12:00;;;;;;;15.13;8.27;;;27.50;99.90;;;;;;4897907;29;20720;-66
2023/08/19 11:14:26;;;;;;;14.75;8.68;;;27.50;99.90;;;;;;4897131;29;20196;-64
2023/08/19 11:16:54;;;;;;;13.68;8.80;;;27.40;99.90;;;;;;4896937;29;20191;-66
2023/08/19 11:19:21;;;;;;;18.15;8.60;;;27.40;99.90;;;;;;4894961;29;20229;-66
2023/08/19 11:21:47;;;;;;;17.60;9.15;;;27.30;99.90;;;;;;4873608;29;20204;-64
2023/08/19 11:24:14;;;;;;;17.45;10.13;;;27.30;99.90;;;;;;4891250;29;20267;-66
2023/08/19 11:26:45;;;;;;;19.85;9.25;;;27.30;99.90;;;;;;4896081;29;20188;-67
2023/08/19 11:29:11;;;;;;;13.55;9.35;;;27.50;99.90;;;;;;4897682;29;20191;-67
2023/08/19 11:31:39;;;;;;;15.15;9.27;;;27.60;99.90;;;;;;4890072;29;20203;-68
2023/08/19 11:34:07;;;;;;;15.68;9.65;;;27.70;99.90;;;;;;4897827;29;20185;-65
2023/08/19 11:36:33;;;;;;;15.52;9.35;;;27.80;99.90;;;;;;4896881;29;20236;-66
2023/08/19 11:38:59;;;;;;;15.63;10.10;;;27.90;99.90;;;;;;4897369;29;20224;-66
2023/08/19 11:41:25;;;;;;;17.02;9.60;;;28.00;99.90;;;;;;4874789;29;20199;-66
2023/08/19 11:43:53;;;;;;;15.35;9.68;;;28.00;99.90;;;;;;4888436;29;20191;-66
2023/08/19 11:46:19;;;;;;;17.88;9.57;;;28.10;99.90;;;;;;4885276;29;20246;-67
2023/08/19 11:48:46;;;;;;;19.05;11.38;;;28.10;99.90;;;;;;4896432;29;20196;-65
2023/08/19 11:51:13;;;;;;;21.50;12.38;;;28.30;99.90;;;;;;4892594;29;20219;-66
2023/08/19 11:53:40;;;;;;;18.67;12.10;;;28.40;99.90;;;;;;4893226;29;20207;-66
2023/08/19 11:56:07;;;;;;;16.65;13.13;;;28.40;99.90;;;;;;4895923;29;20188;-66
2023/08/19 11:58:50;;;;;;;22.15;13.00;;;28.50;99.90;;;;;;4897117;29;20669;-66
2023/08/19 12:01:17;;;;;;;22.27;13.00;;;28.50;99.90;;;;;;4895062;29;20184;-65
2023/08/19 12:03:45;;;;;;;23.10;12.98;;;28.60;99.90;;;;;;4886732;29;20188;-65
2023/08/19 12:06:12;;;;;;;21.83;14.32;;;28.70;99.90;;;;;;4892930;29;20204;-66
2023/08/19 12:08:40;;;;;;;21.73;16.73;;;28.70;99.90;;;;;;4896962;29;20676;-65
2023/08/19 12:11:07;;;;;;;29.67;17.25;;;28.80;99.90;;;;;;4896957;29;20243;-65
2023/08/19 12:13:33;;;;;;;25.52;18.42;;;28.90;99.90;;;;;;4889224;29;20210;-65
2023/08/19 12:16:00;;;;;;;28.90;19.42;;;28.90;99.90;;;;;;4895688;29;20704;-66
2023/08/19 12:18:29;;;;;;;28.17;19.48;;;28.90;99.90;;;;;;4897134;29;20676;-65
2023/08/19 12:20:55;;;;;;;25.73;19.25;;;28.80;99.90;;;;;;4895790;29;20590;-65
2023/08/19 12:23:20;;;;;;;32.53;19.92;;;28.80;99.90;;;;;;4890696;29;20251;-66
2023/08/19 12:25:55;;;;;;;28.35;20.58;;;28.70;99.90;;;;;;4886603;29;20229;-65
2023/08/19 12:28:23;;;;;;;26.40;20.05;;;28.70;99.90;;;;;;4886718;29;20615;-69
2023/08/19 12:30:50;;;;;;;28.05;21.20;;;28.50;99.90;;;;;;4896318;29;20196;-65